createdAt,value
2023-05-05T00:02:01.752Z,1.70
2023-05-05T00:04:29.739Z,2.13
2023-05-05T00:06:57.473Z,1.77
2023-05-05T00:09:25.186Z,2.08
2023-05-05T00:11:54.409Z,1.85
2023-05-05T00:14:22.729Z,1.73
2023-05-05T00:16:50.585Z,2.03
2023-05-05T00:19:18.843Z,2.10
2023-05-05T00:21:46.563Z,1.92
2023-05-05T00:24:14.304Z,1.90
2023-05-05T00:26:42.061Z,1.75
2023-05-05T00:29:11.228Z,1.90
2023-05-05T00:31:39.193Z,1.98
2023-05-05T00:34:08.266Z,1.85
2023-05-05T00:36:36.979Z,1.85
2023-05-05T00:39:04.799Z,1.80
2023-05-05T00:41:32.552Z,2.00
2023-05-05T00:44:00.973Z,1.90
2023-05-05T00:46:30.967Z,1.80
2023-05-05T00:48:59.817Z,1.75
2023-05-05T00:51:28.802Z,2.38
2023-05-05T00:53:56.756Z,1.92
2023-05-05T00:58:55.135Z,1.90
2023-05-05T01:01:23.038Z,2.10
2023-05-05T01:03:52.413Z,1.85
2023-05-05T01:06:36.588Z,2.05
2023-05-05T01:09:09.979Z,2.00
2023-05-05T01:11:43.981Z,2.10
2023-05-05T01:14:14.509Z,2.22
2023-05-05T01:17:00.594Z,2.80
2023-05-05T01:19:50.894Z,1.98
2023-05-05T01:22:21.759Z,2.22
2023-05-05T01:25:01.319Z,2.53
2023-05-05T01:27:38.349Z,2.40
2023-05-05T01:30:22.325Z,2.50
2023-05-05T01:32:55.168Z,2.50
2023-05-05T01:35:28.440Z,3.28
2023-05-05T01:38:01.744Z,2.45
2023-05-05T01:40:32.999Z,2.50
2023-05-05T01:43:01.687Z,2.45
2023-05-05T01:45:31.035Z,2.83
2023-05-05T01:48:00.974Z,2.45
2023-05-05T01:50:30.202Z,2.80
2023-05-05T01:52:58.989Z,2.63
2023-05-05T01:55:27.145Z,2.30
2023-05-05T01:57:56.909Z,2.75
2023-05-05T02:00:26.887Z,3.00
2023-05-05T02:02:56.840Z,3.05
2023-05-05T02:05:27.517Z,2.70
2023-05-05T02:07:58.114Z,2.95
2023-05-05T02:10:26.184Z,3.20
2023-05-05T02:12:55.244Z,3.22
2023-05-05T02:15:24.144Z,2.90
2023-05-05T02:17:53.533Z,2.85
2023-05-05T02:20:21.689Z,2.90
2023-05-05T02:22:50.831Z,2.72
2023-05-05T02:25:18.702Z,2.70
2023-05-05T02:27:47.866Z,2.92
2023-05-05T02:30:17.037Z,2.70
2023-05-05T02:32:49.055Z,2.97
2023-05-05T02:35:21.230Z,3.25
2023-05-05T02:37:53.068Z,3.95
2023-05-05T02:40:24.955Z,3.05
2023-05-05T02:42:55.549Z,3.28
2023-05-05T02:45:29.071Z,2.88
2023-05-05T02:47:57.154Z,3.63
2023-05-05T02:50:25.191Z,3.50
2023-05-05T02:53:05.891Z,3.83
2023-05-05T02:55:39.415Z,3.70
2023-05-05T02:58:09.767Z,3.95
2023-05-05T03:00:46.320Z,4.07
2023-05-05T03:03:19.655Z,3.92
2023-05-05T03:05:53.471Z,4.20
2023-05-05T03:08:28.250Z,4.15
2023-05-05T03:11:00.561Z,3.88
2023-05-05T03:13:29.442Z,4.22
2023-05-05T03:15:58.519Z,3.90
2023-05-05T03:18:28.825Z,4.22
2023-05-05T03:21:07.933Z,5.05
2023-05-05T03:23:39.914Z,4.43
2023-05-05T03:26:18.361Z,4.20
2023-05-05T03:28:47.295Z,4.20
2023-05-05T03:31:28.276Z,4.25
2023-05-05T03:33:59.062Z,4.90
2023-05-05T03:36:31.915Z,4.40
2023-05-05T03:39:01.736Z,4.40
2023-05-05T03:41:33.492Z,4.63
2023-05-05T03:44:01.933Z,5.63
2023-05-05T03:46:30.421Z,4.50
2023-05-05T03:48:58.271Z,5.15
2023-05-05T03:51:28.035Z,4.95
2023-05-05T03:53:56.430Z,5.38
2023-05-05T03:56:25.676Z,5.28
2023-05-05T03:58:54.429Z,5.20
2023-05-05T04:01:23.301Z,5.30
2023-05-05T04:03:52.356Z,6.05
2023-05-05T04:06:21.086Z,5.90
2023-05-05T04:08:48.761Z,5.72
2023-05-05T04:11:16.483Z,5.78
2023-05-05T04:13:46.028Z,5.82
2023-05-05T04:16:15.156Z,6.00
2023-05-05T04:18:43.128Z,6.32
2023-05-05T04:21:11.043Z,5.97
2023-05-05T04:23:39.224Z,6.25
2023-05-05T04:26:07.093Z,7.25
2023-05-05T04:28:34.820Z,6.18
2023-05-05T04:31:05.119Z,6.80
2023-05-05T04:33:36.330Z,6.10
2023-05-05T04:36:04.809Z,7.03
2023-05-05T04:38:33.460Z,5.93
2023-05-05T04:41:06.227Z,5.80
2023-05-05T04:43:34.162Z,6.13
2023-05-05T04:46:02.129Z,5.68
2023-05-05T04:48:37.004Z,5.70
2023-05-05T04:51:06.564Z,6.35
2023-05-05T04:53:34.553Z,7.32
2023-05-05T04:56:03.384Z,5.32
2023-05-05T04:58:31.411Z,5.90
2023-05-05T05:00:59.803Z,5.50
2023-05-05T05:03:27.707Z,5.20
2023-05-05T05:05:57.186Z,5.70
2023-05-05T05:08:25.008Z,5.85
2023-05-05T05:10:52.857Z,5.25
2023-05-05T05:13:20.716Z,5.30
2023-05-05T05:15:48.642Z,5.13
2023-05-05T05:18:16.667Z,5.22
2023-05-05T05:20:44.665Z,5.25
2023-05-05T05:23:13.981Z,5.30
2023-05-05T05:25:44.846Z,4.95
2023-05-05T05:28:14.522Z,5.13
2023-05-05T05:30:48.091Z,4.55
2023-05-05T05:33:16.969Z,4.95
2023-05-05T05:35:45.780Z,5.32
2023-05-05T05:38:15.501Z,5.63
2023-05-05T05:40:43.352Z,5.47
2023-05-05T05:43:11.450Z,5.18
2023-05-05T05:45:40.873Z,5.03
2023-05-05T05:48:09.845Z,5.95
2023-05-05T05:50:38.409Z,4.72
2023-05-05T05:53:06.761Z,4.90
2023-05-05T05:55:36.044Z,5.05
2023-05-05T05:58:04.318Z,5.90
2023-05-05T06:00:32.131Z,5.35
2023-05-05T06:03:06.785Z,4.75
2023-05-05T06:05:37.578Z,4.60
2023-05-05T06:08:06.175Z,4.80
2023-05-05T06:10:39.792Z,4.72
2023-05-05T06:13:12.356Z,4.72
2023-05-05T06:15:44.253Z,4.82
2023-05-05T06:18:14.353Z,4.00
2023-05-05T06:20:43.357Z,4.53
2023-05-05T06:23:12.415Z,4.25
2023-05-05T06:25:46.672Z,4.15
2023-05-05T06:28:14.749Z,4.20
2023-05-05T06:30:42.457Z,4.50
2023-05-05T06:33:10.264Z,3.75
2023-05-05T06:35:38.198Z,4.30
2023-05-05T06:38:05.994Z,4.05
2023-05-05T06:40:33.721Z,3.90
2023-05-05T06:43:02.806Z,4.03
2023-05-05T06:45:36.092Z,4.00
2023-05-05T06:48:04.303Z,3.80
2023-05-05T06:50:32.038Z,4.32
2023-05-05T06:53:00.664Z,3.63
2023-05-05T06:55:28.700Z,3.80
2023-05-05T06:57:56.707Z,3.97
2023-05-05T07:00:26.341Z,4.10
2023-05-05T07:02:54.520Z,4.93
2023-05-05T07:05:22.392Z,3.40
2023-05-05T07:07:53.957Z,3.83
2023-05-05T07:10:22.701Z,4.50
2023-05-05T07:12:51.892Z,4.43
2023-05-05T07:15:28.564Z,4.10
2023-05-05T07:17:58.723Z,4.22
2023-05-05T07:20:26.799Z,4.07
2023-05-05T07:22:54.899Z,3.25
2023-05-05T07:25:22.962Z,3.95
2023-05-05T07:27:51.049Z,4.00
2023-05-05T07:30:19.479Z,4.05
2023-05-05T07:32:47.721Z,4.43
2023-05-05T07:35:17.184Z,3.67
2023-05-05T07:37:45.527Z,3.40
2023-05-05T07:40:13.886Z,3.55
2023-05-05T07:42:42.053Z,3.85
2023-05-05T07:45:10.457Z,3.50
2023-05-05T07:47:38.588Z,3.53
2023-05-05T07:50:07.704Z,3.63
2023-05-05T07:52:48.424Z,3.83
2023-05-05T07:55:20.351Z,3.30
2023-05-05T07:57:49.581Z,3.60
2023-05-05T08:00:19.314Z,3.08
2023-05-05T08:02:48.157Z,3.65
2023-05-05T08:05:16.476Z,3.50
2023-05-05T08:07:45.595Z,3.22
2023-05-05T08:10:13.980Z,3.67
2023-05-05T08:12:42.705Z,3.35
2023-05-05T08:15:11.423Z,3.10
2023-05-05T08:17:47.722Z,3.70
2023-05-05T08:20:15.827Z,2.92
2023-05-05T08:22:45.364Z,4.20
2023-05-05T08:25:13.955Z,3.28
2023-05-05T08:27:42.894Z,3.55
2023-05-05T08:30:11.863Z,3.60
2023-05-05T08:32:39.831Z,3.58
2023-05-05T08:35:08.295Z,3.60
2023-05-05T08:37:37.412Z,3.60
2023-05-05T08:40:07.876Z,3.92
2023-05-05T08:42:37.903Z,3.25
2023-05-05T08:45:08.145Z,3.78
2023-05-05T08:47:36.655Z,3.58
2023-05-05T08:50:05.637Z,4.00
2023-05-05T08:52:40.203Z,3.40
2023-05-05T08:55:15.213Z,4.15
2023-05-05T08:57:47.134Z,4.45
2023-05-05T09:00:15.809Z,3.40
2023-05-05T09:02:43.875Z,3.83
2023-05-05T09:05:11.901Z,3.08
2023-05-05T09:07:41.310Z,3.85
2023-05-05T09:10:12.188Z,3.78
2023-05-05T09:12:41.563Z,3.50
2023-05-05T09:15:10.740Z,3.88
2023-05-05T09:17:39.236Z,3.75
2023-05-05T09:20:08.708Z,3.45
2023-05-05T09:22:38.444Z,4.25
2023-05-05T09:25:07.885Z,4.55
2023-05-05T09:27:42.381Z,3.78
2023-05-05T09:30:11.364Z,3.90
2023-05-05T09:32:47.022Z,4.03
2023-05-05T09:35:14.979Z,3.63
2023-05-05T09:37:43.252Z,3.92
2023-05-05T09:40:12.058Z,3.72
2023-05-05T09:42:41.574Z,4.32
2023-05-05T09:45:27.647Z,3.60
2023-05-05T09:47:59.920Z,3.92
2023-05-05T09:50:30.778Z,3.80
2023-05-05T09:53:00.222Z,3.95
2023-05-05T09:55:28.517Z,3.90
2023-05-05T09:57:57.947Z,3.65
2023-05-05T10:00:39.080Z,4.22
2023-05-05T10:03:06.982Z,4.05
2023-05-05T10:05:34.891Z,3.70
2023-05-05T10:08:14.203Z,3.83
2023-05-05T10:10:48.269Z,3.80
2023-05-05T10:13:19.698Z,3.60
2023-05-05T10:15:49.563Z,3.55
2023-05-05T10:18:20.627Z,3.45
2023-05-05T10:20:50.303Z,3.55
2023-05-05T10:23:20.501Z,4.60
2023-05-05T10:25:56.015Z,3.47
2023-05-05T10:28:30.800Z,4.05
2023-05-05T10:31:00.410Z,3.70
2023-05-05T10:33:33.770Z,3.88
2023-05-05T10:36:03.340Z,4.32
2023-05-05T10:38:32.087Z,3.75
2023-05-05T10:41:01.094Z,3.70
2023-05-05T10:43:31.335Z,3.83
2023-05-05T10:45:59.460Z,4.47
2023-05-05T10:48:35.037Z,3.70
2023-05-05T10:51:27.403Z,3.95
2023-05-05T10:54:10.332Z,3.47
2023-05-05T10:56:41.227Z,3.38
2023-05-05T10:59:44.151Z,3.28
2023-05-05T11:02:22.844Z,3.30
2023-05-05T11:05:18.344Z,3.80
2023-05-05T11:07:47.290Z,3.60
2023-05-05T11:10:16.493Z,3.70
2023-05-05T11:13:18.810Z,3.20
2023-05-05T11:15:48.823Z,4.10
2023-05-05T11:18:36.775Z,3.40
2023-05-05T11:21:18.125Z,3.75
2023-05-05T11:23:47.799Z,3.00
2023-05-05T11:26:16.353Z,2.90
2023-05-05T11:29:01.485Z,3.30
2023-05-05T11:31:31.414Z,3.70
2023-05-05T11:34:28.079Z,4.00
2023-05-05T11:37:02.168Z,3.35
2023-05-05T11:39:37.628Z,3.88
2023-05-05T11:42:19.144Z,3.40
2023-05-05T11:44:47.422Z,2.83
2023-05-05T11:47:32.975Z,3.97
2023-05-05T11:50:18.040Z,3.60
2023-05-05T11:52:46.535Z,3.70
2023-05-05T11:55:14.405Z,3.50
2023-05-05T11:57:42.160Z,4.03
2023-05-05T12:00:10.780Z,3.33
2023-05-05T12:02:40.227Z,3.95
2023-05-05T12:05:08.920Z,3.90
2023-05-05T12:07:36.718Z,3.50
2023-05-05T12:10:04.753Z,3.30
2023-05-05T12:12:37.030Z,3.28
2023-05-05T12:15:05.750Z,3.35
2023-05-05T12:17:39.219Z,3.40
2023-05-05T12:20:10.144Z,3.33
2023-05-05T12:22:38.484Z,3.35
2023-05-05T12:25:08.636Z,3.35
2023-05-05T12:27:36.610Z,3.90
2023-05-05T12:30:19.439Z,3.25
2023-05-05T12:32:47.592Z,3.53
2023-05-05T12:35:17.021Z,3.20
2023-05-05T12:37:45.407Z,3.17
2023-05-05T12:40:43.713Z,3.35
2023-05-05T12:43:11.810Z,3.20
2023-05-05T12:45:39.713Z,3.10
2023-05-05T12:48:25.670Z,3.22
2023-05-05T12:50:55.033Z,3.42
2023-05-05T12:53:23.461Z,4.00
2023-05-05T12:55:51.884Z,3.60
2023-05-05T12:58:20.772Z,3.17
2023-05-05T13:01:08.969Z,3.30
2023-05-05T13:03:37.085Z,3.00
2023-05-05T13:08:58.271Z,4.60
2023-05-05T13:11:26.864Z,4.60
2023-05-05T13:13:54.693Z,4.68
2023-05-05T13:16:22.827Z,4.38
2023-05-05T13:18:52.140Z,3.28
2023-05-05T13:21:20.003Z,4.05
2023-05-05T13:23:47.907Z,3.58
2023-05-05T13:26:17.450Z,3.70
2023-05-05T13:28:45.164Z,3.20
2023-05-05T13:31:13.062Z,3.70
2023-05-05T13:33:41.519Z,3.30
2023-05-05T13:36:09.843Z,3.33
2023-05-05T13:38:37.877Z,3.60
2023-05-05T13:41:05.603Z,3.40
2023-05-05T13:43:34.973Z,4.30
2023-05-05T13:46:18.695Z,3.92
2023-05-05T13:48:47.811Z,4.68
2023-05-05T13:51:16.620Z,3.85
2023-05-05T13:53:45.108Z,4.07
2023-05-05T13:56:13.763Z,4.07
2023-05-05T13:58:43.301Z,4.50
2023-05-05T14:01:11.369Z,4.18
2023-05-05T14:03:40.170Z,6.57
2023-05-05T14:06:09.176Z,3.88
2023-05-05T14:08:37.021Z,4.15
2023-05-05T14:11:04.966Z,3.13
2023-05-05T14:13:32.775Z,3.38
2023-05-05T14:16:02.103Z,3.20
2023-05-05T14:18:30.120Z,3.20
2023-05-05T14:20:58.401Z,3.17
2023-05-05T14:23:26.724Z,3.35
2023-05-05T14:25:54.628Z,2.78
2023-05-05T14:28:22.490Z,4.10
2023-05-05T14:30:50.251Z,3.45
2023-05-05T14:33:19.329Z,3.42
2023-05-05T14:35:47.434Z,3.30
2023-05-05T14:38:15.367Z,3.15
2023-05-05T14:40:43.233Z,4.03
2023-05-05T14:43:11.690Z,3.08
2023-05-05T14:45:39.742Z,3.50
2023-05-05T14:48:07.473Z,3.75
2023-05-05T14:50:36.915Z,3.58
2023-05-05T14:53:05.272Z,4.13
2023-05-05T14:55:33.641Z,3.08
2023-05-05T14:58:01.281Z,3.25
2023-05-05T15:00:29.221Z,2.90
2023-05-05T15:02:56.985Z,3.17
2023-05-05T15:05:25.230Z,3.17
2023-05-05T15:07:55.219Z,3.05
2023-05-05T15:10:23.035Z,3.75
2023-05-05T15:12:51.261Z,3.50
2023-05-05T15:15:19.193Z,3.58
2023-05-05T15:17:46.966Z,3.72
2023-05-05T15:20:14.906Z,3.63
2023-05-05T15:22:42.564Z,3.47
2023-05-05T15:25:14.726Z,3.83
2023-05-05T15:27:42.871Z,4.15
2023-05-05T15:30:13.846Z,3.97
2023-05-05T15:32:41.844Z,2.70
2023-05-05T15:35:10.078Z,2.97
2023-05-05T15:37:38.053Z,3.40
2023-05-05T15:40:06.925Z,3.85
2023-05-05T15:42:36.083Z,3.60
2023-05-05T15:45:04.557Z,3.25
2023-05-05T15:47:32.541Z,3.00
2023-05-05T15:50:00.343Z,3.10
2023-05-05T15:52:28.578Z,3.65
2023-05-05T15:54:56.694Z,3.08
2023-05-05T15:57:24.782Z,3.47
2023-05-05T15:59:54.403Z,2.97
2023-05-05T16:02:22.320Z,2.95
2023-05-05T16:04:50.211Z,3.00
2023-05-05T16:07:18.252Z,2.70
2023-05-05T16:09:46.097Z,3.42
2023-05-05T16:12:14.333Z,4.22
2023-05-05T16:14:42.058Z,2.88
2023-05-05T16:17:11.330Z,3.05
2023-05-05T16:19:39.176Z,3.05
2023-05-05T16:22:07.600Z,2.78
2023-05-05T16:24:35.376Z,2.75
2023-05-05T16:27:03.722Z,3.10
2023-05-05T16:29:31.465Z,4.05
2023-05-05T16:31:59.709Z,3.33
2023-05-05T16:34:28.756Z,2.70
2023-05-05T16:36:57.213Z,2.92
2023-05-05T16:39:26.134Z,2.97
2023-05-05T16:41:54.529Z,2.80
2023-05-05T16:44:22.355Z,3.10
2023-05-05T16:46:50.166Z,3.33
2023-05-05T16:49:18.252Z,2.75
2023-05-05T16:51:47.421Z,3.42
2023-05-05T16:54:15.469Z,3.17
2023-05-05T16:56:43.162Z,3.47
2023-05-05T16:59:11.201Z,3.15
2023-05-05T17:01:38.919Z,2.97
2023-05-05T17:04:07.915Z,3.10
2023-05-05T17:06:35.858Z,3.33
2023-05-05T17:09:06.188Z,3.42
2023-05-05T17:11:33.864Z,3.03
2023-05-05T17:14:01.583Z,3.00
2023-05-05T17:16:29.928Z,3.03
2023-05-05T17:18:57.647Z,3.35
2023-05-05T17:21:25.461Z,4.57
2023-05-05T17:23:53.208Z,4.55
2023-05-05T17:26:22.960Z,3.85
2023-05-05T17:28:50.767Z,5.53
2023-05-05T17:31:18.521Z,5.00
2023-05-05T17:33:46.175Z,3.60
2023-05-05T17:36:13.853Z,4.05
2023-05-05T17:38:41.600Z,4.13
2023-05-05T17:41:09.530Z,6.05
2023-05-05T17:43:38.554Z,4.97
2023-05-05T17:46:06.450Z,3.55
2023-05-05T17:48:34.613Z,4.18
2023-05-05T17:51:02.718Z,3.67
2023-05-05T17:53:30.343Z,4.13
2023-05-05T17:55:58.829Z,3.40
2023-05-05T17:58:26.847Z,3.17
2023-05-05T18:00:55.947Z,2.90
2023-05-05T18:03:23.691Z,2.60
2023-05-05T18:05:51.497Z,3.20
2023-05-05T18:08:19.736Z,2.80
2023-05-05T18:10:47.387Z,3.45
2023-05-05T18:13:15.250Z,3.53
2023-05-05T18:15:43.785Z,3.00
2023-05-05T18:18:13.023Z,3.40
2023-05-05T18:20:40.905Z,3.50
2023-05-05T18:23:08.799Z,3.90
2023-05-05T18:25:36.460Z,3.50
2023-05-05T18:28:04.335Z,3.22
2023-05-05T18:30:35.626Z,3.70
2023-05-05T18:33:03.888Z,3.80
2023-05-05T18:35:33.268Z,4.05
2023-05-05T18:38:00.959Z,5.18
2023-05-05T18:40:28.650Z,3.42
2023-05-05T18:42:56.838Z,3.60
2023-05-05T18:45:24.702Z,3.42
2023-05-05T18:47:52.414Z,3.45
2023-05-05T18:50:21.293Z,3.15
2023-05-05T18:52:50.851Z,3.53
2023-05-05T18:55:18.651Z,3.70
2023-05-05T18:57:46.471Z,3.63
2023-05-05T19:00:14.898Z,3.33
2023-05-05T19:02:42.821Z,4.13
2023-05-05T19:05:11.928Z,3.50
2023-05-05T19:07:40.875Z,3.15
2023-05-05T19:10:11.471Z,2.97
2023-05-05T19:12:39.463Z,5.18
2023-05-05T19:15:09.063Z,4.82
2023-05-05T19:17:37.022Z,3.20
2023-05-05T19:20:05.595Z,3.70
2023-05-05T19:22:33.274Z,4.10
2023-05-05T19:25:01.181Z,3.28
2023-05-05T19:27:33.800Z,4.22
2023-05-05T19:30:02.030Z,3.90
2023-05-05T19:32:29.752Z,3.88
2023-05-05T19:34:57.689Z,3.13
2023-05-05T19:37:25.584Z,4.05
2023-05-05T19:39:53.837Z,3.83
2023-05-05T19:42:21.634Z,4.00
2023-05-05T19:44:51.614Z,3.70
2023-05-05T19:47:19.407Z,3.80
2023-05-05T19:49:47.221Z,4.28
2023-05-05T19:52:15.054Z,3.10
2023-05-05T19:54:43.379Z,4.03
2023-05-05T19:57:11.431Z,4.18
2023-05-05T19:59:39.818Z,3.95
2023-05-05T20:02:09.378Z,4.60
2023-05-05T20:04:38.035Z,5.10
2023-05-05T20:07:05.721Z,4.27
2023-05-05T20:09:33.912Z,3.90
2023-05-05T20:12:01.977Z,3.63
2023-05-05T20:14:29.741Z,4.28
2023-05-05T20:16:57.418Z,3.60
2023-05-05T20:19:27.666Z,4.63
2023-05-05T20:21:56.953Z,3.05
2023-05-05T20:24:24.732Z,4.00
2023-05-05T20:26:52.851Z,3.67
2023-05-05T20:29:21.606Z,3.85
2023-05-05T20:31:49.445Z,3.40
2023-05-05T20:34:17.645Z,3.90
2023-05-05T20:36:46.744Z,3.50
2023-05-05T20:39:15.898Z,3.88
2023-05-05T20:41:43.788Z,4.00
2023-05-05T20:44:11.532Z,3.80
2023-05-05T20:46:39.543Z,4.05
2023-05-05T20:49:07.346Z,4.20
2023-05-05T20:51:36.026Z,4.03
2023-05-05T20:54:05.708Z,3.67
2023-05-05T20:56:33.556Z,3.13
2023-05-05T20:59:01.293Z,3.50
2023-05-05T21:01:29.285Z,3.63
2023-05-05T21:03:57.496Z,3.45
2023-05-05T21:06:25.215Z,4.13
2023-05-05T21:08:52.924Z,3.90
2023-05-05T21:11:22.702Z,4.03
2023-05-05T21:13:50.656Z,3.25
2023-05-05T21:16:18.490Z,3.97
2023-05-05T21:18:47.301Z,3.28
2023-05-05T21:21:14.959Z,3.30
2023-05-05T21:23:42.807Z,3.70
2023-05-05T21:26:11.165Z,3.15
2023-05-05T21:28:40.389Z,3.70
2023-05-05T21:33:39.396Z,4.00
2023-05-05T21:36:07.225Z,3.72
2023-05-05T21:38:34.915Z,4.30
2023-05-05T21:41:03.949Z,3.75
2023-05-05T21:43:31.726Z,4.43
2023-05-05T21:46:01.008Z,4.22
2023-05-05T21:48:28.865Z,4.38
2023-05-05T21:50:56.588Z,3.83
2023-05-05T21:53:24.818Z,4.90
2023-05-05T21:55:52.550Z,4.85
2023-05-05T21:58:20.259Z,4.65
2023-05-05T22:00:50.249Z,4.93
2023-05-05T22:03:19.558Z,3.60
2023-05-05T22:05:47.901Z,4.22
2023-05-05T22:08:15.548Z,3.70
2023-05-05T22:10:44.140Z,4.22
2023-05-05T22:13:11.904Z,4.93
2023-05-05T22:15:46.778Z,4.28
2023-05-05T22:18:15.680Z,4.47
2023-05-05T22:20:44.861Z,4.70
2023-05-05T22:23:13.888Z,4.10
2023-05-05T22:25:41.834Z,3.97
2023-05-05T22:28:09.535Z,4.80
2023-05-05T22:30:37.383Z,4.20
2023-05-05T22:33:05.644Z,4.57
2023-05-05T22:35:33.546Z,4.40
2023-05-05T22:38:02.539Z,4.32
2023-05-05T22:40:30.350Z,4.75
2023-05-05T22:42:58.292Z,4.60
2023-05-05T22:45:26.378Z,4.57
2023-05-05T22:47:55.433Z,4.55
2023-05-05T22:50:24.046Z,4.78
2023-05-05T22:52:51.749Z,4.40
2023-05-05T22:55:21.211Z,4.60
2023-05-05T22:57:50.524Z,4.40
2023-05-05T23:00:18.582Z,4.82
2023-05-05T23:02:46.335Z,5.10
2023-05-05T23:05:14.042Z,4.20
2023-05-05T23:07:41.730Z,4.93
2023-05-05T23:10:10.207Z,5.00
2023-05-05T23:12:39.295Z,3.78
2023-05-05T23:15:08.486Z,4.55
2023-05-05T23:17:36.414Z,4.45
2023-05-05T23:20:05.720Z,5.10
2023-05-05T23:22:33.814Z,4.60
2023-05-05T23:25:01.858Z,4.18
2023-05-05T23:27:30.563Z,4.75
2023-05-05T23:29:59.720Z,4.47
2023-05-05T23:32:27.452Z,5.40
2023-05-05T23:34:55.883Z,4.68
2023-05-05T23:37:24.736Z,4.75
2023-05-05T23:39:52.922Z,5.25
2023-05-05T23:42:20.958Z,4.72
2023-05-05T23:44:48.658Z,5.15
2023-05-05T23:47:17.897Z,4.80
2023-05-05T23:49:45.590Z,4.63
2023-05-05T23:52:13.706Z,4.88
2023-05-05T23:54:41.812Z,5.18
2023-05-05T23:57:09.695Z,4.85
2023-05-05T23:59:37.397Z,4.85
